createdAt,value
2022-07-29T00:02:29.565Z,77.80
2022-07-29T00:04:56.671Z,78.00
2022-07-29T00:07:23.583Z,78.20
2022-07-29T00:09:52.510Z,78.40
2022-07-29T00:12:25.200Z,78.50
2022-07-29T00:14:57.310Z,78.70
2022-07-29T00:17:25.331Z,78.70
2022-07-29T00:19:52.527Z,78.90
2022-07-29T00:22:19.981Z,79.10
2022-07-29T00:24:49.747Z,79.20
2022-07-29T00:27:17.306Z,79.30
2022-07-29T00:29:44.216Z,79.40
2022-07-29T00:32:11.240Z,79.50
2022-07-29T00:34:56.675Z,79.50
2022-07-29T00:37:24.501Z,79.60
2022-07-29T00:39:51.996Z,79.70
2022-07-29T00:42:18.991Z,79.80
2022-07-29T00:44:46.381Z,79.80
2022-07-29T00:47:13.704Z,79.90
2022-07-29T00:49:42.346Z,80.00
2022-07-29T00:52:12.120Z,80.00
2022-07-29T00:54:44.554Z,80.00
2022-07-29T00:57:12.693Z,80.00
2022-07-29T00:59:41.099Z,80.10
2022-07-29T01:02:08.670Z,80.20
2022-07-29T01:04:36.930Z,80.30
2022-07-29T01:07:05.288Z,80.40
2022-07-29T01:09:46.089Z,80.60
2022-07-29T01:12:20.428Z,80.70
2022-07-29T01:14:48.818Z,80.90
2022-07-29T01:17:23.497Z,81.00
2022-07-29T01:19:56.301Z,81.20
2022-07-29T01:22:35.700Z,81.30
2022-07-29T01:25:18.032Z,81.50
2022-07-29T01:28:15.612Z,81.60
2022-07-29T01:30:45.554Z,81.80
2022-07-29T01:33:38.755Z,81.90
2022-07-29T01:36:16.303Z,82.00
2022-07-29T01:38:46.789Z,82.10
2022-07-29T01:41:21.090Z,82.30
2022-07-29T01:43:58.697Z,82.30
2022-07-29T01:46:39.989Z,82.40
2022-07-29T01:49:17.709Z,82.50
2022-07-29T01:52:13.203Z,82.50
2022-07-29T01:54:53.660Z,82.60
2022-07-29T01:57:26.067Z,82.60
2022-07-29T01:59:55.416Z,82.70
2022-07-29T02:02:24.333Z,82.70
2022-07-29T02:04:53.479Z,82.80
2022-07-29T02:07:22.793Z,82.80
2022-07-29T02:09:52.746Z,82.80
2022-07-29T02:12:22.306Z,82.90
2022-07-29T02:14:53.099Z,82.90
2022-07-29T02:17:28.784Z,83.00
2022-07-29T02:20:00.426Z,83.10
2022-07-29T02:22:32.921Z,83.10
2022-07-29T02:25:01.024Z,83.20
2022-07-29T02:27:30.724Z,83.30
2022-07-29T02:29:59.623Z,83.40
2022-07-29T02:32:28.668Z,83.40
2022-07-29T02:34:57.805Z,83.50
2022-07-29T02:37:26.963Z,83.50
2022-07-29T02:39:56.117Z,83.60
2022-07-29T02:42:25.108Z,83.70
2022-07-29T02:44:52.683Z,83.60
2022-07-29T02:47:41.353Z,83.70
2022-07-29T02:50:18.788Z,83.80
2022-07-29T02:52:53.498Z,83.80
2022-07-29T02:55:37.960Z,83.80
2022-07-29T02:58:13.580Z,83.90
2022-07-29T03:00:42.268Z,83.90
2022-07-29T03:03:14.012Z,84.00
2022-07-29T03:05:41.627Z,84.00
2022-07-29T03:08:11.733Z,84.00
2022-07-29T03:10:41.633Z,84.10
2022-07-29T03:13:09.269Z,84.10
2022-07-29T03:15:36.725Z,84.20
2022-07-29T03:18:04.360Z,84.20
2022-07-29T03:20:31.258Z,84.30
2022-07-29T03:22:58.039Z,84.30
2022-07-29T03:25:24.892Z,84.30
2022-07-29T03:27:51.719Z,84.40
2022-07-29T03:30:21.727Z,84.40
2022-07-29T03:32:49.469Z,84.50
2022-07-29T03:35:19.273Z,84.50
2022-07-29T03:37:46.407Z,84.60
2022-07-29T03:40:19.202Z,84.60
2022-07-29T03:42:47.764Z,84.60
2022-07-29T03:45:19.043Z,84.70
2022-07-29T03:47:57.024Z,84.70
2022-07-29T03:50:27.154Z,84.80
2022-07-29T03:52:54.102Z,84.80
2022-07-29T03:55:21.332Z,84.90
2022-07-29T03:57:50.181Z,85.00
2022-07-29T04:00:17.592Z,85.00
2022-07-29T04:02:49.306Z,85.10
2022-07-29T04:05:17.049Z,85.10
2022-07-29T04:07:48.048Z,85.20
2022-07-29T04:10:16.685Z,85.20
2022-07-29T04:12:43.735Z,85.20
2022-07-29T04:15:11.214Z,85.30
2022-07-29T04:17:38.022Z,85.20
2022-07-29T04:20:05.939Z,85.30
2022-07-29T04:22:32.813Z,85.20
2022-07-29T04:25:03.747Z,85.20
2022-07-29T04:27:30.913Z,85.10
2022-07-29T04:29:57.843Z,85.10
2022-07-29T04:32:26.038Z,85.00
2022-07-29T04:34:52.859Z,85.00
2022-07-29T04:37:19.713Z,85.10
2022-07-29T04:39:46.542Z,85.10
2022-07-29T04:42:13.505Z,84.90
2022-07-29T04:44:42.910Z,84.90
2022-07-29T04:47:10.577Z,84.90
2022-07-29T04:49:40.450Z,84.70
2022-07-29T04:52:07.831Z,84.80
2022-07-29T04:54:34.700Z,84.70
2022-07-29T04:57:01.547Z,84.70
2022-07-29T04:59:28.706Z,84.80
2022-07-29T05:01:55.636Z,84.70
2022-07-29T05:04:22.569Z,84.70
2022-07-29T05:06:49.788Z,84.70
2022-07-29T05:09:16.763Z,84.70
2022-07-29T05:11:43.635Z,84.80
2022-07-29T05:14:10.570Z,84.80
2022-07-29T05:16:37.480Z,84.60
2022-07-29T05:19:04.347Z,84.50
2022-07-29T05:21:31.184Z,84.50
2022-07-29T05:23:58.157Z,84.60
2022-07-29T05:26:25.037Z,84.60
2022-07-29T05:28:51.890Z,84.60
2022-07-29T05:31:18.861Z,84.70
2022-07-29T05:33:45.776Z,84.80
2022-07-29T05:36:12.818Z,84.90
2022-07-29T05:38:39.676Z,84.90
2022-07-29T05:41:06.639Z,84.90
2022-07-29T05:43:33.947Z,85.00
2022-07-29T05:46:00.956Z,85.00
2022-07-29T05:48:28.318Z,85.00
2022-07-29T05:50:55.729Z,85.00
2022-07-29T05:53:22.834Z,84.90
2022-07-29T05:55:50.410Z,84.90
2022-07-29T05:58:17.592Z,84.70
2022-07-29T06:00:45.408Z,84.70
2022-07-29T06:03:12.629Z,84.70
2022-07-29T06:05:39.554Z,84.40
2022-07-29T06:08:09.733Z,84.30
2022-07-29T06:10:36.781Z,84.20
2022-07-29T06:13:03.865Z,84.10
2022-07-29T06:15:30.773Z,84.20
2022-07-29T06:18:00.524Z,84.20
2022-07-29T06:20:32.899Z,84.00
2022-07-29T06:23:00.801Z,83.70
2022-07-29T06:25:31.330Z,83.70
2022-07-29T06:27:59.062Z,83.50
2022-07-29T06:30:26.036Z,83.70
2022-07-29T06:32:53.143Z,83.50
2022-07-29T06:35:38.827Z,83.30
2022-07-29T06:38:30.249Z,83.00
2022-07-29T06:41:11.096Z,82.80
2022-07-29T06:43:51.879Z,82.50
2022-07-29T06:46:22.384Z,82.70
2022-07-29T06:48:50.033Z,82.50
2022-07-29T06:51:22.729Z,82.40
2022-07-29T06:53:59.376Z,82.30
2022-07-29T06:56:39.625Z,82.50
2022-07-29T06:59:08.164Z,82.50
2022-07-29T07:01:35.892Z,82.40
2022-07-29T07:04:03.151Z,82.20
2022-07-29T07:06:30.090Z,82.30
2022-07-29T07:08:57.215Z,82.50
2022-07-29T07:11:24.111Z,82.10
2022-07-29T07:13:50.898Z,82.10
2022-07-29T07:16:18.117Z,82.10
2022-07-29T07:18:46.250Z,81.30
2022-07-29T07:21:19.007Z,80.80
2022-07-29T07:23:46.931Z,80.90
2022-07-29T07:26:13.777Z,80.20
2022-07-29T07:28:40.615Z,79.40
2022-07-29T07:31:07.585Z,79.20
2022-07-29T07:33:34.504Z,78.60
2022-07-29T07:36:01.414Z,77.40
2022-07-29T07:38:28.245Z,76.60
2022-07-29T07:40:55.069Z,74.30
2022-07-29T07:43:22.826Z,73.10
2022-07-29T07:45:49.673Z,73.20
2022-07-29T07:48:16.666Z,72.70
2022-07-29T07:50:44.664Z,71.80
2022-07-29T07:53:11.852Z,72.10
2022-07-29T07:58:30.206Z,70.50
2022-07-29T08:00:57.100Z,69.80
2022-07-29T08:03:23.958Z,69.00
2022-07-29T08:05:52.781Z,68.40
2022-07-29T08:08:19.832Z,67.90
2022-07-29T08:10:53.091Z,67.20
2022-07-29T08:13:24.795Z,67.10
2022-07-29T08:15:58.910Z,67.20
2022-07-29T08:18:27.567Z,67.30
2022-07-29T08:20:54.942Z,67.50
2022-07-29T08:23:23.693Z,67.50
2022-07-29T08:25:52.353Z,66.50
2022-07-29T08:28:22.187Z,66.90
2022-07-29T08:30:53.032Z,66.50
2022-07-29T08:33:19.894Z,66.40
2022-07-29T08:35:46.872Z,65.80
2022-07-29T08:38:13.714Z,65.70
2022-07-29T08:40:40.837Z,66.00
2022-07-29T08:43:09.707Z,65.80
2022-07-29T08:45:48.832Z,65.90
2022-07-29T08:48:21.303Z,65.80
2022-07-29T08:50:48.885Z,65.90
2022-07-29T08:53:17.757Z,65.90
2022-07-29T08:55:46.323Z,65.90
2022-07-29T08:58:15.749Z,65.10
2022-07-29T09:00:45.771Z,64.90
2022-07-29T09:03:18.959Z,64.50
2022-07-29T09:05:49.760Z,64.00
2022-07-29T09:08:17.904Z,64.00
2022-07-29T09:10:45.563Z,64.00
2022-07-29T09:13:12.517Z,63.80
2022-07-29T09:15:39.579Z,64.00
2022-07-29T09:18:06.426Z,63.90
2022-07-29T09:20:53.705Z,63.40
2022-07-29T09:23:23.035Z,63.40
2022-07-29T09:25:51.598Z,63.40
2022-07-29T09:28:19.155Z,63.20
2022-07-29T09:30:59.489Z,62.50
2022-07-29T09:33:35.429Z,62.40
2022-07-29T09:36:07.702Z,62.30
2022-07-29T09:38:34.752Z,62.40
2022-07-29T09:41:06.280Z,62.30
2022-07-29T09:43:34.136Z,62.30
2022-07-29T09:46:21.319Z,62.00
2022-07-29T09:49:10.444Z,62.50
2022-07-29T09:51:38.730Z,62.40
2022-07-29T09:54:29.238Z,61.90
2022-07-29T09:56:57.094Z,61.90
2022-07-29T09:59:27.497Z,62.40
2022-07-29T10:01:55.245Z,62.40
2022-07-29T10:04:22.485Z,61.90
2022-07-29T10:07:04.635Z,62.00
2022-07-29T10:09:33.037Z,61.50
2022-07-29T10:12:16.459Z,61.30
2022-07-29T10:14:43.909Z,61.40
2022-07-29T10:17:11.811Z,60.60
2022-07-29T10:19:39.892Z,60.90
2022-07-29T10:22:11.494Z,61.10
2022-07-29T10:24:39.529Z,60.90
2022-07-29T10:27:09.080Z,61.20
2022-07-29T10:29:36.894Z,61.50
2022-07-29T10:32:16.214Z,60.70
2022-07-29T10:34:58.313Z,60.40
2022-07-29T10:37:46.738Z,60.60
2022-07-29T10:40:45.732Z,60.90
2022-07-29T10:43:42.252Z,60.20
2022-07-29T10:46:10.069Z,60.20
2022-07-29T10:49:09.735Z,60.40
2022-07-29T10:52:06.355Z,60.60
2022-07-29T10:54:36.169Z,60.40
2022-07-29T10:57:17.918Z,60.50
2022-07-29T10:59:46.471Z,60.50
2022-07-29T11:02:42.699Z,60.50
2022-07-29T11:05:20.207Z,60.30
2022-07-29T11:11:25.767Z,60.10
2022-07-29T11:13:57.108Z,60.20
2022-07-29T11:16:25.338Z,60.30
2022-07-29T11:19:11.307Z,60.40
2022-07-29T11:21:53.752Z,60.20
2022-07-29T11:24:32.148Z,60.20
2022-07-29T11:27:08.483Z,59.80
2022-07-29T11:29:40.493Z,58.70
2022-07-29T11:32:18.234Z,59.00
2022-07-29T11:34:51.568Z,58.50
2022-07-29T11:37:20.236Z,58.90
2022-07-29T11:40:01.557Z,58.90
2022-07-29T11:42:33.069Z,59.30
2022-07-29T11:47:52.617Z,58.70
2022-07-29T11:50:33.469Z,58.50
2022-07-29T11:53:08.911Z,59.30
2022-07-29T11:55:38.536Z,57.30
2022-07-29T11:58:25.073Z,58.60
2022-07-29T12:00:55.752Z,58.50
2022-07-29T12:03:35.026Z,58.40
2022-07-29T12:06:04.835Z,57.50
2022-07-29T12:08:43.432Z,57.70
2022-07-29T12:11:21.292Z,58.20
2022-07-29T12:13:49.544Z,58.50
2022-07-29T12:16:25.819Z,59.10
2022-07-29T12:19:03.996Z,58.00
2022-07-29T12:21:53.991Z,58.30
2022-07-29T12:24:26.677Z,58.80
2022-07-29T12:27:02.500Z,59.60
2022-07-29T12:29:35.118Z,57.40
2022-07-29T12:32:03.584Z,56.90
2022-07-29T12:34:31.386Z,58.50
2022-07-29T12:36:58.577Z,56.50
2022-07-29T12:39:28.787Z,57.20
2022-07-29T12:42:03.942Z,56.50
2022-07-29T12:44:52.203Z,57.00
2022-07-29T12:47:20.923Z,56.60
2022-07-29T12:49:48.939Z,56.30
2022-07-29T12:52:30.703Z,56.80
2022-07-29T12:54:58.256Z,56.30
2022-07-29T12:57:25.601Z,56.20
2022-07-29T13:00:01.559Z,55.70
2022-07-29T13:02:28.496Z,55.40
2022-07-29T13:04:59.449Z,56.60
2022-07-29T13:07:55.291Z,57.30
2022-07-29T13:10:23.923Z,56.00
2022-07-29T13:13:12.319Z,56.50
2022-07-29T13:15:44.696Z,55.80
2022-07-29T13:18:32.032Z,56.60
2022-07-29T13:21:12.642Z,55.30
2022-07-29T13:23:39.834Z,55.00
2022-07-29T13:26:08.768Z,56.10
2022-07-29T13:28:35.873Z,55.70
2022-07-29T13:31:02.961Z,55.50
2022-07-29T13:33:30.017Z,55.40
2022-07-29T13:35:56.970Z,55.70
2022-07-29T13:38:23.818Z,57.00
2022-07-29T13:40:58.883Z,56.20
2022-07-29T13:43:25.673Z,54.50
2022-07-29T13:45:53.115Z,55.40
2022-07-29T13:48:19.972Z,56.30
2022-07-29T13:50:47.634Z,56.50
2022-07-29T13:53:18.008Z,55.10
2022-07-29T13:55:45.229Z,55.30
2022-07-29T13:58:12.065Z,54.90
2022-07-29T14:00:38.946Z,55.60
2022-07-29T14:03:07.395Z,53.40
2022-07-29T14:05:34.323Z,54.90
2022-07-29T14:08:01.143Z,53.50
2022-07-29T14:10:28.329Z,53.80
2022-07-29T14:12:55.455Z,54.90
2022-07-29T14:15:22.439Z,54.60
2022-07-29T14:17:49.300Z,55.70
2022-07-29T14:20:17.171Z,52.90
2022-07-29T14:22:45.221Z,53.70
2022-07-29T14:25:14.934Z,54.20
2022-07-29T14:27:43.364Z,51.70
2022-07-29T14:30:10.785Z,52.70
2022-07-29T14:32:37.763Z,56.70
2022-07-29T14:35:05.711Z,53.00
2022-07-29T14:37:39.352Z,53.20
2022-07-29T14:40:08.332Z,53.80
2022-07-29T14:42:35.372Z,54.70
2022-07-29T14:45:02.186Z,54.70
2022-07-29T14:47:29.035Z,53.70
2022-07-29T14:49:55.871Z,52.90
2022-07-29T14:52:22.746Z,55.00
2022-07-29T14:54:49.583Z,52.60
2022-07-29T14:57:16.424Z,51.90
2022-07-29T14:59:43.271Z,51.00
2022-07-29T15:02:10.322Z,51.10
2022-07-29T15:04:37.175Z,52.70
2022-07-29T15:07:04.243Z,51.50
2022-07-29T15:09:31.108Z,53.50
2022-07-29T15:11:58.161Z,52.40
2022-07-29T15:14:25.166Z,51.30
2022-07-29T15:16:52.907Z,52.20
2022-07-29T15:19:20.143Z,53.00
2022-07-29T15:21:59.565Z,51.00
2022-07-29T15:24:27.023Z,51.20
2022-07-29T15:26:54.790Z,51.40
2022-07-29T15:29:22.252Z,51.50
2022-07-29T15:31:49.207Z,51.10
2022-07-29T15:34:16.133Z,51.50
2022-07-29T15:36:51.903Z,51.80
2022-07-29T15:39:20.318Z,51.10
2022-07-29T15:41:47.387Z,52.80
2022-07-29T15:44:14.224Z,52.60
2022-07-29T15:46:59.960Z,51.10
2022-07-29T15:49:46.316Z,50.30
2022-07-29T15:52:24.938Z,52.20
2022-07-29T15:54:54.440Z,53.40
2022-07-29T15:57:21.379Z,50.90
2022-07-29T15:59:48.351Z,51.60
2022-07-29T16:02:15.597Z,50.80
2022-07-29T16:04:42.419Z,50.10
2022-07-29T16:07:09.333Z,51.00
2022-07-29T16:09:36.447Z,50.60
2022-07-29T16:12:05.525Z,50.60
2022-07-29T16:14:45.371Z,50.30
2022-07-29T16:17:14.745Z,50.50
2022-07-29T16:19:42.995Z,50.80
2022-07-29T16:22:10.027Z,50.70
2022-07-29T16:24:37.124Z,51.00
2022-07-29T16:27:04.262Z,50.90
2022-07-29T16:29:31.158Z,51.80
2022-07-29T16:31:58.276Z,51.10
2022-07-29T16:34:25.186Z,50.70
2022-07-29T16:36:52.033Z,51.50
2022-07-29T16:39:18.948Z,51.80
2022-07-29T16:41:45.830Z,51.30
2022-07-29T16:44:12.697Z,51.30
2022-07-29T16:46:41.536Z,50.80
2022-07-29T16:49:08.520Z,51.20
2022-07-29T16:51:35.449Z,51.40
2022-07-29T16:54:02.538Z,50.20
2022-07-29T16:56:29.362Z,51.80
2022-07-29T16:58:58.365Z,49.70
2022-07-29T17:01:25.391Z,50.30
2022-07-29T17:04:07.252Z,50.30
2022-07-29T17:06:40.625Z,52.40
2022-07-29T17:09:09.576Z,52.00
2022-07-29T17:11:52.325Z,50.70
2022-07-29T17:14:25.083Z,49.50
2022-07-29T17:17:01.065Z,51.20
2022-07-29T17:19:35.593Z,49.90
2022-07-29T17:22:18.768Z,50.20
2022-07-29T17:24:47.322Z,50.50
2022-07-29T17:27:14.938Z,51.10
2022-07-29T17:29:42.089Z,50.60
2022-07-29T17:32:09.852Z,52.60
2022-07-29T17:34:38.839Z,52.10
2022-07-29T17:37:06.904Z,52.30
2022-07-29T17:39:35.651Z,52.10
2022-07-29T17:42:05.902Z,52.80
2022-07-29T17:44:36.097Z,52.30
2022-07-29T17:47:04.243Z,52.90
2022-07-29T17:49:31.456Z,52.30
2022-07-29T17:52:00.895Z,52.40
2022-07-29T17:54:28.578Z,52.70
2022-07-29T17:56:55.696Z,53.30
2022-07-29T17:59:22.751Z,55.70
2022-07-29T18:01:49.613Z,53.50
2022-07-29T18:04:20.198Z,54.40
2022-07-29T18:06:47.139Z,54.70
2022-07-29T18:09:14.058Z,54.10
2022-07-29T18:11:41.236Z,54.50
2022-07-29T18:14:12.568Z,54.90
2022-07-29T18:16:39.558Z,55.70
2022-07-29T18:19:06.752Z,56.10
2022-07-29T18:21:42.699Z,56.30
2022-07-29T18:24:19.034Z,57.10
2022-07-29T18:26:45.895Z,57.30
2022-07-29T18:29:12.715Z,57.10
2022-07-29T18:31:41.210Z,57.50
2022-07-29T18:34:08.172Z,58.00
2022-07-29T18:36:35.022Z,58.40
2022-07-29T18:39:01.841Z,58.80
2022-07-29T18:41:29.253Z,58.00
2022-07-29T18:43:56.146Z,58.20
2022-07-29T18:46:23.201Z,57.90
2022-07-29T18:48:52.465Z,56.80
2022-07-29T18:51:19.463Z,57.30
2022-07-29T18:53:46.337Z,58.80
2022-07-29T18:56:13.219Z,58.70
2022-07-29T18:58:40.109Z,59.70
2022-07-29T19:01:07.414Z,59.10
2022-07-29T19:03:35.182Z,58.50
2022-07-29T19:06:02.037Z,58.50
2022-07-29T19:08:28.871Z,58.70
2022-07-29T19:10:56.098Z,58.00
2022-07-29T19:13:23.119Z,57.60
2022-07-29T19:15:50.227Z,58.00
2022-07-29T19:18:17.113Z,58.80
2022-07-29T19:20:44.056Z,59.10
2022-07-29T19:23:11.041Z,58.50
2022-07-29T19:25:53.179Z,59.20
2022-07-29T19:28:22.707Z,59.60
2022-07-29T19:30:50.164Z,59.90
2022-07-29T19:33:18.873Z,60.00
2022-07-29T19:35:47.623Z,60.00
2022-07-29T19:38:16.707Z,59.60
2022-07-29T19:40:43.748Z,59.70
2022-07-29T19:43:51.923Z,59.40
2022-07-29T19:45:57.638Z,59.20
2022-07-29T19:48:24.518Z,58.20
2022-07-29T19:50:51.367Z,58.00
2022-07-29T19:53:18.193Z,58.40
2022-07-29T19:55:45.234Z,58.70
2022-07-29T19:58:12.075Z,58.50
2022-07-29T20:00:38.944Z,58.50
2022-07-29T20:03:07.171Z,58.20
2022-07-29T20:05:34.163Z,58.50
2022-07-29T20:08:01.068Z,59.10
2022-07-29T20:10:28.433Z,59.40
2022-07-29T20:12:55.469Z,59.60
2022-07-29T20:15:22.585Z,60.00
2022-07-29T20:17:52.808Z,60.10
2022-07-29T20:20:23.207Z,60.20
2022-07-29T20:22:50.062Z,60.30
2022-07-29T20:25:16.917Z,60.50
2022-07-29T20:27:43.761Z,60.60
2022-07-29T20:30:13.939Z,60.70
2022-07-29T20:32:41.375Z,60.90
2022-07-29T20:35:08.883Z,61.20
2022-07-29T20:37:55.691Z,61.40
2022-07-29T20:40:22.812Z,61.50
2022-07-29T20:42:49.639Z,61.80
2022-07-29T20:45:16.492Z,62.00
2022-07-29T20:47:43.326Z,62.20
2022-07-29T20:50:10.436Z,62.40
2022-07-29T20:52:39.492Z,62.70
2022-07-29T20:55:08.743Z,62.90
2022-07-29T20:57:38.917Z,63.10
2022-07-29T21:00:07.645Z,63.30
2022-07-29T21:02:34.576Z,63.50
2022-07-29T21:05:01.492Z,63.90
2022-07-29T21:07:28.381Z,64.10
2022-07-29T21:09:55.212Z,64.50
2022-07-29T21:12:22.700Z,64.90
2022-07-29T21:14:49.833Z,65.20
2022-07-29T21:17:17.534Z,65.70
2022-07-29T21:19:48.203Z,66.20
2022-07-29T21:22:15.126Z,66.70
2022-07-29T21:24:42.118Z,67.20
2022-07-29T21:27:27.890Z,67.80
2022-07-29T21:29:55.108Z,68.30
2022-07-29T21:32:29.589Z,69.00
2022-07-29T21:34:58.718Z,69.50
2022-07-29T21:37:25.757Z,70.40
2022-07-29T21:39:52.853Z,71.00
2022-07-29T21:42:19.744Z,71.80
2022-07-29T21:44:46.677Z,72.20
2022-07-29T21:47:13.560Z,73.00
2022-07-29T21:49:40.431Z,73.90
2022-07-29T21:52:08.189Z,74.90
2022-07-29T21:54:35.855Z,76.30
2022-07-29T21:57:03.496Z,77.40
2022-07-29T21:59:30.965Z,78.40
2022-07-29T22:02:00.918Z,79.00
2022-07-29T22:04:31.561Z,79.90
2022-07-29T22:06:59.229Z,80.60
2022-07-29T22:09:26.658Z,81.00
2022-07-29T22:11:54.385Z,81.50
2022-07-29T22:14:21.519Z,81.90
2022-07-29T22:16:48.877Z,82.30
2022-07-29T22:19:16.007Z,82.60
2022-07-29T22:21:43.014Z,82.80
2022-07-29T22:24:10.709Z,82.90
2022-07-29T22:26:38.452Z,83.10
2022-07-29T22:29:05.775Z,83.30
2022-07-29T22:31:32.725Z,83.40
2022-07-29T22:33:59.770Z,83.50
2022-07-29T22:36:26.973Z,83.80
2022-07-29T22:38:53.831Z,83.90
2022-07-29T22:41:20.779Z,84.00
2022-07-29T22:43:47.644Z,84.00
2022-07-29T22:46:14.670Z,83.90
2022-07-29T22:48:41.636Z,84.00
2022-07-29T22:51:08.588Z,84.10
2022-07-29T22:53:37.076Z,84.20
2022-07-29T22:56:04.460Z,84.20
2022-07-29T22:58:31.326Z,84.20
2022-07-29T23:00:58.449Z,84.20
2022-07-29T23:03:25.504Z,84.30
2022-07-29T23:05:52.543Z,84.40
2022-07-29T23:08:19.916Z,84.40
2022-07-29T23:10:47.000Z,84.40
2022-07-29T23:13:14.147Z,84.40
2022-07-29T23:15:42.017Z,84.40
2022-07-29T23:18:09.245Z,84.40
2022-07-29T23:20:36.387Z,84.40
2022-07-29T23:23:03.364Z,84.50
2022-07-29T23:25:30.310Z,84.40
2022-07-29T23:27:57.262Z,84.40
2022-07-29T23:30:24.455Z,84.40
2022-07-29T23:32:51.396Z,84.40
2022-07-29T23:35:18.432Z,84.40
2022-07-29T23:37:45.294Z,84.40
2022-07-29T23:40:14.709Z,84.40
2022-07-29T23:42:42.701Z,84.40
2022-07-29T23:45:10.613Z,84.40
2022-07-29T23:47:37.511Z,84.50
2022-07-29T23:50:05.761Z,84.40
2022-07-29T23:52:32.652Z,84.50
2022-07-29T23:55:37.156Z,84.50
2022-07-29T23:57:46.413Z,84.50
